Jules Verne — A8SN2 — position and weather

sailwx.info

Track history (hours):
 
Tides and Currents Weather Stations Pressure Air Temp Water Temp Dewpoint Dewpoint Depression Visibility Wind Speed Wind Dir Waves Ship Positions

Jules Verne

Last reported at 2017-Sep-19 20:06 UTC. Time now 2017-Sep-21 10:43 UTC.
Position N 29°53' E 124°26'.

Length 261 m; draft 9.8 m.

Type: Cargo ship. MMSI: 636091763.

Date/timePositionNaut miles runAvg speedWind from/ knotsBaromVisibWave heightAir tempDewpointWater temp
2017-Sep-19 20:06N 29°53' E 124°26'319.1
2017-Sep-19 19:55N 29°50' E 124°24'3219.1
2017-Sep-19 18:15N 29°24' E 124°04'4620.1
2017-Sep-19 15:58N 28°46' E 123°33'32320.0
2017-Sep-18 23:49N 24°42' E 119°37'6920.6
2017-Sep-18 20:27N 23°59' E 118°37'1119.8
2017-Sep-18 19:54N 23°53' E 118°27'819.9
2017-Sep-18 19:29N 23°48' E 118°20'919.5
2017-Sep-18 19:00N 23°41' E 118°13'1019.4
2017-Sep-18 18:30N 23°35' E 118°04'1018.7
2017-Sep-18 17:58N 23°29' E 117°56'1218.5
2017-Sep-18 17:19N 23°21' E 117°46'618.1
2017-Sep-18 17:00N 23°18' E 117°41'918.6
2017-Sep-18 16:30N 23°13' E 117°33'1019.1
2017-Sep-18 16:00N 23°08' E 117°24'1020.1
2017-Sep-18 15:30N 22°60' E 117°17'1019.6
2017-Sep-18 15:00N 22°54' E 117°08'181 4.1
2017-Sep-16 18:59N 22°21' E 113°56'6 9.4
2017-Sep-16 18:22N 22°27' E 113°53'  
2017-Sep-12 14:14N 22°30' E 119°38'2 8.7
2017-Sep-12 13:59N 22°30' E 119°40'4 8.4
2017-Sep-12 13:30N 22°31' E 119°44'4 8.7
2017-Sep-12 13:00N 22°31' E 119°49'5 8.7
2017-Sep-12 12:28N 22°31' E 119°54'4 8.4
2017-Sep-12 11:59N 22°32' E 119°58'5 8.1
2017-Sep-12 11:20N 22°32' E 120°04'3 7.9
2017-Sep-12 11:00N 22°32' E 120°07'4 7.7
2017-Sep-12 10:30N 22°33' E 120°11'4 7.7
2017-Sep-12 10:00N 22°33' E 120°15'4 0.4
2017-Sep-11 23:27N 22°33' E 120°20'1 2.2
2017-Sep-11 23:00N 22°33' E 120°19'3 5.0
2017-Sep-11 22:30N 22°32' E 120°16'1 1.5
2017-Sep-11 22:00N 22°32' E 120°15'2 3.4
2017-Sep-11 21:30N 22°31' E 120°14'0 1.0
2017-Sep-11 21:00N 22°32' E 120°13'4 7.4
2017-Sep-11 20:30N 22°34' E 120°10'612.9
2017-Sep-11 20:00N 22°40' E 120°07'815.9
2017-Sep-11 19:30N 22°47' E 120°03'6414.5
2017-Sep-11 15:07N 23°50' E 119°55'314.1
2017-Sep-11 14:55N 23°53' E 119°56'714.0
2017-Sep-11 14:24N 23°60' E 119°58'615.2
2017-Sep-11 14:00N 24°05' E 120°02'1215.5
2017-Sep-11 13:15N 24°16' E 120°06'1815.3
2017-Sep-11 12:06N 24°28' E 120°20'1416.2
2017-Sep-11 11:14N 24°39' E 120°30'1415.9
2017-Sep-11 10:22N 24°50' E 120°39'1215.6
2017-Sep-11 09:36N 24°59' E 120°47'415.4
2017-Sep-11 09:20N 25°03' E 120°50'815.1
2017-Sep-11 08:47N 25°10' E 120°55'  
Track history (hours):
 
Tides and Currents Weather Stations Pressure Air Temp Water Temp Dewpoint Dewpoint Depression Visibility Wind Speed Wind Dir Waves Ship Positions

Jules Verne

Last reported at 2017-Sep-19 20:06 UTC. Time now 2017-Sep-21 10:43 UTC.
Position N 29°53' E 124°26'.

Length 261 m; draft 9.8 m.

Type: Cargo ship. MMSI: 636091763.

Date/timePositionNaut miles runAvg speedWind from/ knotsBaromVisibWave heightAir tempDewpointWater temp
2017-Sep-19 20:06N 29°53' E 124°26'319.1
2017-Sep-19 19:55N 29°50' E 124°24'3219.1
2017-Sep-19 18:15N 29°24' E 124°04'4620.1
2017-Sep-19 15:58N 28°46' E 123°33'32320.0
2017-Sep-18 23:49N 24°42' E 119°37'6920.6
2017-Sep-18 20:27N 23°59' E 118°37'1119.8
2017-Sep-18 19:54N 23°53' E 118°27'819.9
2017-Sep-18 19:29N 23°48' E 118°20'919.5
2017-Sep-18 19:00N 23°41' E 118°13'1019.4
2017-Sep-18 18:30N 23°35' E 118°04'1018.7
2017-Sep-18 17:58N 23°29' E 117°56'1218.5
2017-Sep-18 17:19N 23°21' E 117°46'618.1
2017-Sep-18 17:00N 23°18' E 117°41'918.6
2017-Sep-18 16:30N 23°13' E 117°33'1019.1
2017-Sep-18 16:00N 23°08' E 117°24'1020.1
2017-Sep-18 15:30N 22°60' E 117°17'1019.6
2017-Sep-18 15:00N 22°54' E 117°08'181 4.1
2017-Sep-16 18:59N 22°21' E 113°56'6 9.4
2017-Sep-16 18:22N 22°27' E 113°53'  
2017-Sep-12 14:14N 22°30' E 119°38'2 8.7
2017-Sep-12 13:59N 22°30' E 119°40'4 8.4
2017-Sep-12 13:30N 22°31' E 119°44'4 8.7
2017-Sep-12 13:00N 22°31' E 119°49'5 8.7
2017-Sep-12 12:28N 22°31' E 119°54'4 8.4
2017-Sep-12 11:59N 22°32' E 119°58'5 8.1
2017-Sep-12 11:20N 22°32' E 120°04'3 7.9
2017-Sep-12 11:00N 22°32' E 120°07'4 7.7
2017-Sep-12 10:30N 22°33' E 120°11'4 7.7
2017-Sep-12 10:00N 22°33' E 120°15'4 0.4
2017-Sep-11 23:27N 22°33' E 120°20'1 2.2
2017-Sep-11 23:00N 22°33' E 120°19'3 5.0
2017-Sep-11 22:30N 22°32' E 120°16'1 1.5
2017-Sep-11 22:00N 22°32' E 120°15'2 3.4
2017-Sep-11 21:30N 22°31' E 120°14'0 1.0
2017-Sep-11 21:00N 22°32' E 120°13'4 7.4
2017-Sep-11 20:30N 22°34' E 120°10'612.9
2017-Sep-11 20:00N 22°40' E 120°07'815.9
2017-Sep-11 19:30N 22°47' E 120°03'6414.5
2017-Sep-11 15:07N 23°50' E 119°55'314.1
2017-Sep-11 14:55N 23°53' E 119°56'714.0
2017-Sep-11 14:24N 23°60' E 119°58'615.2
2017-Sep-11 14:00N 24°05' E 120°02'1215.5
2017-Sep-11 13:15N 24°16' E 120°06'1815.3
2017-Sep-11 12:06N 24°28' E 120°20'1416.2
2017-Sep-11 11:14N 24°39' E 120°30'1415.9
2017-Sep-11 10:22N 24°50' E 120°39'1215.6
2017-Sep-11 09:36N 24°59' E 120°47'415.4
2017-Sep-11 09:20N 25°03' E 120°50'815.1
2017-Sep-11 08:47N 25°10' E 120°55'  

Dump ship's entire track history